Terminal Aerodrome Forecast
Issued by NWS New Orleans/Baton Rouge, LA

Home | Current Version | Previous Version | Text Only | Print | Product List | Glossary On
Versions: 1 2 3 4 5 6 7 8 9 10 11 12 13 14 15 16 17 18 19 20 21 22 23 24 25 26 27 28 29 30 31 32
000
FTUS44 KLIX 181120
TAFNEW
TAF
KNEW 181120Z 1812/1912 17007KT 1SM BR OVC003
      TEMPO 1812/1816 1/4SM FG VV002
     FM181600 15007KT 3SM BR BKN006
     FM181800 16007KT P6SM VCSH BKN020
     FM190100 14007KT 4SM BR OVC007=

USA.gov is the U.S. government's official web portal to all federal, state and local government web resources and services.